KDVL

Devils Lake Regional Airport

Airport
ICAO code
KDVL
IATA Code
DVL
Summary
ICAO Region
NAM
ICAO Territory
Location

Devils Lake, North Dakota

Serving
Devils Lake
Elevation
1456 ft
Coordinates
48° 6' 51" N , 98° 54' 31" W
KCC
Airport CFIT
Altimeter Temperature Error Correction
Airport RE
Landing on Contaminated Runways
Airport WX
Cumulonimbus
Metar
KDVL 201856Z AUTO 15013G21KT 10SM CLR 22/12 A3029 RMK AO2 SLP263 T02170117

Description

Devils Lake Regional Airport is a public use airport located 2 nm west of the central business district of Devils Lake, a city in Ramsey County, North Dakota.

Airport map

Aerial View

SKYbrary Partners:

Safety knowledge contributed by: